createdAt,value
2023-02-14T00:00:54.006Z,37.20
2023-02-14T00:03:20.601Z,38.47
2023-02-14T00:05:47.176Z,40.55
2023-02-14T00:08:13.774Z,42.78
2023-02-14T00:10:40.317Z,35.78
2023-02-14T00:13:06.890Z,41.15
2023-02-14T00:15:33.508Z,41.97
2023-02-14T00:18:00.101Z,34.83
2023-02-14T00:20:28.070Z,37.58
2023-02-14T00:22:55.144Z,37.08
2023-02-14T00:25:21.917Z,42.05
2023-02-14T00:27:48.499Z,34.22
2023-02-14T00:30:15.525Z,34.67
2023-02-14T00:32:42.933Z,38.13
2023-02-14T00:35:10.227Z,37.78
2023-02-14T00:37:36.961Z,36.60
2023-02-14T00:40:05.287Z,42.47
2023-02-14T00:42:31.882Z,38.33
2023-02-14T00:44:58.531Z,40.13
2023-02-14T00:47:25.228Z,35.53
2023-02-14T00:49:51.886Z,34.90
2023-02-14T00:52:18.593Z,33.85
2023-02-14T00:54:45.234Z,35.03
2023-02-14T00:57:11.857Z,42.13
2023-02-14T00:59:38.455Z,35.72
2023-02-14T01:02:05.196Z,33.17
2023-02-14T01:04:31.933Z,38.35
2023-02-14T01:06:58.492Z,37.95
2023-02-14T01:09:25.058Z,38.22
2023-02-14T01:11:51.836Z,40.15
2023-02-14T01:14:18.391Z,34.80
2023-02-14T01:16:45.188Z,36.40
2023-02-14T01:19:11.943Z,37.13
2023-02-14T01:21:38.589Z,37.78
2023-02-14T01:24:07.374Z,35.22
2023-02-14T01:26:35.286Z,36.35
2023-02-14T01:29:02.907Z,35.08
2023-02-14T01:31:33.069Z,37.80
2023-02-14T01:34:00.698Z,34.38
2023-02-14T01:36:30.502Z,38.55
2023-02-14T01:38:59.836Z,39.03
2023-02-14T01:41:29.190Z,35.70
2023-02-14T01:44:04.177Z,36.33
2023-02-14T01:49:13.716Z,39.13
2023-02-14T01:51:45.213Z,34.13
2023-02-14T01:54:12.430Z,36.08
2023-02-14T01:56:43.179Z,35.58
2023-02-14T01:59:15.909Z,33.75
2023-02-14T02:01:42.803Z,36.17
2023-02-14T02:04:16.184Z,37.65
2023-02-14T02:06:48.777Z,32.17
2023-02-14T02:09:20.328Z,38.33
2023-02-14T02:11:46.960Z,35.53
2023-02-14T02:14:21.789Z,34.38
2023-02-14T02:17:19.173Z,31.55
2023-02-14T02:20:04.516Z,32.28
2023-02-14T02:25:12.811Z,31.90
2023-02-14T02:28:03.466Z,30.30
2023-02-14T02:30:49.034Z,29.48
2023-02-14T02:33:37.638Z,29.23
2023-02-14T02:36:04.207Z,33.40
2023-02-14T02:38:45.053Z,30.30
2023-02-14T02:41:30.334Z,27.38
2023-02-14T02:44:12.340Z,30.45
2023-02-14T02:46:52.685Z,28.10
2023-02-14T02:49:46.952Z,26.98
2023-02-14T02:52:56.624Z,28.67
2023-02-14T02:55:51.087Z,29.67
2023-02-14T02:58:20.484Z,31.75
2023-02-14T03:00:51.012Z,34.00
2023-02-14T03:03:38.309Z,32.83
2023-02-14T03:06:05.037Z,32.45
2023-02-14T03:08:31.594Z,30.65
2023-02-14T03:10:59.320Z,31.90
2023-02-14T03:13:51.670Z,34.97
2023-02-14T03:16:27.325Z,33.25
2023-02-14T03:19:36.327Z,35.40
2023-02-14T03:22:27.060Z,37.05
2023-02-14T03:25:11.608Z,31.63
2023-02-14T03:28:04.142Z,21.87
2023-02-14T03:30:56.717Z,27.48
2023-02-14T03:33:32.173Z,25.25
2023-02-14T03:36:06.756Z,23.58
2023-02-14T03:38:42.212Z,27.13
2023-02-14T03:41:14.433Z,25.25
2023-02-14T03:43:50.026Z,25.92
2023-02-14T03:46:22.794Z,29.33
2023-02-14T03:48:51.739Z,24.25
2023-02-14T03:51:20.650Z,27.45
2023-02-14T03:53:53.404Z,24.38
2023-02-14T03:56:32.469Z,29.95
2023-02-14T03:59:06.203Z,24.95
2023-02-14T04:01:51.556Z,25.60
2023-02-14T04:06:45.806Z,19.02
2023-02-14T04:09:12.795Z,25.05
2023-02-14T04:11:39.531Z,26.23
2023-02-14T04:14:06.564Z,24.80
2023-02-14T04:16:55.545Z,24.60
2023-02-14T04:19:24.918Z,23.15
2023-02-14T04:21:52.502Z,23.83
2023-02-14T04:24:19.894Z,22.15
2023-02-14T04:27:10.108Z,22.17
2023-02-14T04:29:46.759Z,21.70
2023-02-14T04:32:16.667Z,17.02
2023-02-14T04:34:43.761Z,18.13
2023-02-14T04:37:10.491Z,20.25
2023-02-14T04:39:37.452Z,19.73
2023-02-14T04:42:05.309Z,19.70
2023-02-14T04:44:33.926Z,18.55
2023-02-14T04:47:01.648Z,21.30
2023-02-14T04:49:28.217Z,21.50
2023-02-14T04:51:54.828Z,21.42
2023-02-14T04:54:21.468Z,18.77
2023-02-14T04:56:48.175Z,20.77
2023-02-14T04:59:14.903Z,16.73
2023-02-14T05:01:42.208Z,19.42
2023-02-14T05:04:09.326Z,20.00
2023-02-14T05:06:36.030Z,18.70
2023-02-14T05:09:03.455Z,20.40
2023-02-14T05:11:30.317Z,24.13
2023-02-14T05:13:57.021Z,22.20
2023-02-14T05:16:24.358Z,20.60
2023-02-14T05:18:51.119Z,21.50
2023-02-14T05:21:17.693Z,20.05
2023-02-14T05:23:44.546Z,23.65
2023-02-14T05:26:11.194Z,20.10
2023-02-14T05:28:37.745Z,18.25
2023-02-14T05:31:04.672Z,21.65
2023-02-14T05:33:31.298Z,22.25
2023-02-14T05:36:02.808Z,21.35
2023-02-14T05:38:30.277Z,17.80
2023-02-14T05:40:56.995Z,20.73
2023-02-14T05:43:23.700Z,16.63
2023-02-14T05:45:50.441Z,20.23
2023-02-14T05:48:17.126Z,20.15
2023-02-14T05:50:45.246Z,20.10
2023-02-14T05:53:12.651Z,20.20
2023-02-14T05:55:39.452Z,22.42
2023-02-14T05:58:06.317Z,18.33
2023-02-14T06:00:33.177Z,16.63
2023-02-14T06:03:00.269Z,19.58
2023-02-14T06:05:27.204Z,17.80
2023-02-14T06:07:53.729Z,14.90
2023-02-14T06:10:22.158Z,14.93
2023-02-14T06:12:49.990Z,19.67
2023-02-14T06:15:17.070Z,15.32
2023-02-14T06:17:44.013Z,19.75
2023-02-14T06:20:11.706Z,18.77
2023-02-14T06:22:39.257Z,16.73
2023-02-14T06:25:06.565Z,14.38
2023-02-14T06:27:33.554Z,17.30
2023-02-14T06:30:00.383Z,15.27
2023-02-14T06:32:27.047Z,17.50
2023-02-14T06:34:53.573Z,16.27
2023-02-14T06:37:20.262Z,15.68
2023-02-14T06:39:47.064Z,19.58
2023-02-14T06:42:13.944Z,16.27
2023-02-14T06:44:40.619Z,20.02
2023-02-14T06:47:08.512Z,21.70
2023-02-14T06:49:35.406Z,18.15
2023-02-14T06:52:02.461Z,20.50
2023-02-14T06:54:29.199Z,17.30
2023-02-14T06:56:55.729Z,14.25
2023-02-14T06:59:22.703Z,15.52
2023-02-14T07:01:49.247Z,20.45
2023-02-14T07:04:16.066Z,15.90
2023-02-14T07:06:42.622Z,18.10
2023-02-14T07:09:09.203Z,15.55
2023-02-14T07:11:35.817Z,18.33
2023-02-14T07:14:02.375Z,17.10
2023-02-14T07:16:29.036Z,19.70
2023-02-14T07:18:55.631Z,16.15
2023-02-14T07:21:22.189Z,19.77
2023-02-14T07:23:50.089Z,19.38
2023-02-14T07:26:18.224Z,18.73
2023-02-14T07:28:45.888Z,17.27
2023-02-14T07:31:12.887Z,16.10
2023-02-14T07:33:39.508Z,15.98
2023-02-14T07:36:08.064Z,17.23
2023-02-14T07:38:35.488Z,18.95
2023-02-14T07:41:02.620Z,19.02
2023-02-14T07:43:29.293Z,17.52
2023-02-14T07:45:58.711Z,16.02
2023-02-14T07:48:25.323Z,17.98
2023-02-14T07:50:51.845Z,20.02
2023-02-14T07:53:18.588Z,24.10
2023-02-14T07:55:49.692Z,21.38
2023-02-14T07:58:16.435Z,16.75
2023-02-14T08:00:43.188Z,22.48
2023-02-14T08:03:09.786Z,19.83
2023-02-14T08:05:36.327Z,23.92
2023-02-14T08:08:02.855Z,19.83
2023-02-14T08:10:29.465Z,17.50
2023-02-14T08:12:58.860Z,21.55
2023-02-14T08:15:52.688Z,20.48
2023-02-14T08:18:21.416Z,20.65
2023-02-14T08:20:51.304Z,21.88
2023-02-14T08:23:19.753Z,21.40
2023-02-14T08:25:48.148Z,22.77
2023-02-14T08:28:15.175Z,24.88
2023-02-14T08:30:43.265Z,25.65
2023-02-14T08:33:09.937Z,21.05
2023-02-14T08:35:36.830Z,26.05
2023-02-14T08:38:04.289Z,25.70
2023-02-14T08:40:31.265Z,20.80
2023-02-14T08:42:57.850Z,25.08
2023-02-14T08:45:24.464Z,24.88
2023-02-14T08:47:51.081Z,31.77
2023-02-14T08:50:18.775Z,24.77
2023-02-14T08:52:45.764Z,25.95
2023-02-14T08:55:13.620Z,27.33
2023-02-14T08:57:40.823Z,27.02
2023-02-14T09:00:08.572Z,29.60
2023-02-14T09:02:35.380Z,28.52
2023-02-14T09:05:01.925Z,29.85
2023-02-14T09:07:28.558Z,31.65
2023-02-14T09:09:55.269Z,31.17
2023-02-14T09:12:21.957Z,36.10
2023-02-14T09:14:48.688Z,31.63
2023-02-14T09:17:16.364Z,31.85
2023-02-14T09:19:43.247Z,29.40
2023-02-14T09:22:11.558Z,26.63
2023-02-14T09:24:39.554Z,31.48
2023-02-14T09:27:06.612Z,31.35
2023-02-14T09:29:33.767Z,32.42
2023-02-14T09:32:01.805Z,33.38
2023-02-14T09:34:48.177Z,35.03
2023-02-14T09:37:15.307Z,35.22
2023-02-14T09:39:41.911Z,35.28
2023-02-14T09:42:36.459Z,36.25
2023-02-14T09:45:05.581Z,36.95
2023-02-14T09:47:55.389Z,37.95
2023-02-14T09:50:31.641Z,37.42
2023-02-14T09:53:03.240Z,37.03
2023-02-14T09:55:40.516Z,38.55
2023-02-14T09:58:22.940Z,41.72
2023-02-14T10:01:00.608Z,35.00
2023-02-14T10:03:33.452Z,37.33
2023-02-14T10:06:18.605Z,40.67
2023-02-14T10:09:22.397Z,36.80
2023-02-14T10:11:50.452Z,34.88
2023-02-14T10:14:30.918Z,38.92
2023-02-14T10:17:13.832Z,37.13
2023-02-14T10:20:07.209Z,36.15
2023-02-14T10:22:46.304Z,39.28
2023-02-14T10:25:31.578Z,41.70
2023-02-14T10:28:01.403Z,38.85
2023-02-14T10:30:35.616Z,37.05
2023-02-14T10:33:22.845Z,38.17
2023-02-14T10:35:52.442Z,38.70
2023-02-14T10:38:34.932Z,38.70
2023-02-14T10:41:25.837Z,39.83
2023-02-14T10:44:30.719Z,39.80
2023-02-14T10:47:43.615Z,46.10
2023-02-14T10:50:10.127Z,37.47
2023-02-14T10:52:50.665Z,39.38
2023-02-14T10:55:34.466Z,41.47
2023-02-14T10:58:04.311Z,40.17
2023-02-14T11:00:38.661Z,36.72
2023-02-14T11:03:08.653Z,41.65
2023-02-14T11:05:39.490Z,42.67
2023-02-14T11:08:27.360Z,42.35
2023-02-14T11:11:21.904Z,44.38
2023-02-14T11:13:48.790Z,39.65
2023-02-14T11:16:37.179Z,39.55
2023-02-14T11:19:15.686Z,43.85
2023-02-14T11:21:44.782Z,40.80
2023-02-14T11:24:35.067Z,43.97
2023-02-14T11:27:04.459Z,40.00
2023-02-14T11:29:36.243Z,36.53
2023-02-14T11:32:13.624Z,38.22
2023-02-14T11:35:03.968Z,38.17
2023-02-14T11:37:34.519Z,40.03
2023-02-14T11:40:02.321Z,46.03
2023-02-14T11:42:41.448Z,45.10
2023-02-14T11:45:34.174Z,40.78
2023-02-14T11:48:06.450Z,45.22
2023-02-14T11:50:33.009Z,40.38
2023-02-14T11:53:00.047Z,40.55
2023-02-14T11:55:29.982Z,44.38
2023-02-14T11:57:57.841Z,39.55
2023-02-14T12:00:27.110Z,42.00
2023-02-14T12:02:55.712Z,43.58
2023-02-14T12:05:32.154Z,36.83
2023-02-14T12:08:02.321Z,36.53
2023-02-14T12:10:32.543Z,37.60
2023-02-14T12:13:10.573Z,38.70
2023-02-14T12:15:55.381Z,39.72
2023-02-14T12:18:42.515Z,34.50
2023-02-14T12:21:28.796Z,34.80
2023-02-14T12:24:24.302Z,38.55
2023-02-14T12:27:27.832Z,37.35
2023-02-14T12:30:13.672Z,38.70
2023-02-14T12:32:49.150Z,35.42
2023-02-14T12:35:40.992Z,32.78
2023-02-14T12:38:19.685Z,33.88
2023-02-14T12:41:01.310Z,37.65
2023-02-14T12:43:51.447Z,32.53
2023-02-14T12:46:37.095Z,29.80
2023-02-14T12:49:03.690Z,31.48
2023-02-14T12:51:34.990Z,34.00
2023-02-14T12:54:27.017Z,35.88
2023-02-14T12:56:56.794Z,33.67
2023-02-14T12:59:50.957Z,35.10
2023-02-14T13:02:41.810Z,35.65
2023-02-14T13:05:30.715Z,31.20
2023-02-14T13:08:42.333Z,33.35
2023-02-14T13:11:29.174Z,32.20
2023-02-14T13:14:13.555Z,32.90
2023-02-14T13:16:54.747Z,34.00
2023-02-14T13:19:41.606Z,33.00
2023-02-14T13:22:16.430Z,33.97
2023-02-14T13:24:46.277Z,32.13
2023-02-14T13:27:22.193Z,29.13
2023-02-14T13:29:56.326Z,32.90
2023-02-14T13:32:28.684Z,30.15
2023-02-14T13:34:56.778Z,30.27
2023-02-14T13:37:27.479Z,29.55
2023-02-14T13:40:25.592Z,28.23
2023-02-14T13:42:55.556Z,34.58
2023-02-14T13:45:40.003Z,30.38
2023-02-14T13:48:20.591Z,30.85
2023-02-14T13:50:58.575Z,30.88
2023-02-14T13:53:33.319Z,31.73
2023-02-14T13:56:00.800Z,29.00
2023-02-14T13:58:27.848Z,28.52
2023-02-14T14:00:56.050Z,31.33
2023-02-14T14:03:28.942Z,28.85
2023-02-14T14:06:05.783Z,27.90
2023-02-14T14:08:32.468Z,29.48
2023-02-14T14:11:02.060Z,27.35
2023-02-14T14:13:40.925Z,27.90
2023-02-14T14:16:29.066Z,26.90
2023-02-14T14:19:00.590Z,31.70
2023-02-14T14:21:43.074Z,28.55
2023-02-14T14:24:28.184Z,26.50
2023-02-14T14:27:06.740Z,25.90
2023-02-14T14:29:46.092Z,28.88
2023-02-14T14:32:19.438Z,28.10
2023-02-14T14:34:53.742Z,25.30
2023-02-14T14:37:28.737Z,32.60
2023-02-14T14:40:01.526Z,28.27
2023-02-14T14:42:32.285Z,29.65
2023-02-14T14:45:02.766Z,24.95
2023-02-14T14:47:37.931Z,25.75
2023-02-14T14:50:10.258Z,26.33
2023-02-14T14:52:43.848Z,25.55
2023-02-14T14:55:23.059Z,27.65
2023-02-14T14:57:58.131Z,26.08
2023-02-14T15:03:12.298Z,23.35
2023-02-14T15:05:51.155Z,31.45
2023-02-14T15:08:32.812Z,27.40
2023-02-14T15:11:36.700Z,30.15
2023-02-14T15:14:06.512Z,26.63
2023-02-14T15:16:42.014Z,24.55
2023-02-14T15:19:12.430Z,27.13
2023-02-14T15:21:44.508Z,24.70
2023-02-14T15:24:14.653Z,25.55
2023-02-14T15:26:43.834Z,28.63
2023-02-14T15:29:30.415Z,25.63
2023-02-14T15:32:00.460Z,26.75
2023-02-14T15:34:33.030Z,28.55
2023-02-14T15:37:06.182Z,28.90
2023-02-14T15:39:37.987Z,35.28
2023-02-14T15:42:06.057Z,39.33
2023-02-14T15:44:32.822Z,42.30
2023-02-14T15:47:03.664Z,38.45
2023-02-14T15:49:35.634Z,41.08
2023-02-14T15:52:05.010Z,38.90
2023-02-14T15:54:31.903Z,41.42
2023-02-14T15:56:59.098Z,42.72
2023-02-14T15:59:31.023Z,49.78
2023-02-14T16:02:01.874Z,44.00
2023-02-14T16:04:32.558Z,44.03
2023-02-14T16:07:20.711Z,48.33
2023-02-14T16:09:48.349Z,49.45
2023-02-14T16:12:36.301Z,46.33
2023-02-14T16:15:15.075Z,51.55
2023-02-14T16:17:44.064Z,44.95
2023-02-14T16:20:39.964Z,39.10
2023-02-14T16:28:09.334Z,38.17
2023-02-14T16:30:37.990Z,40.58
2023-02-14T16:33:07.266Z,43.50
2023-02-14T16:35:34.005Z,42.40
2023-02-14T16:38:00.678Z,44.80
2023-02-14T16:40:28.734Z,36.95
2023-02-14T16:42:55.426Z,36.30
2023-02-14T16:45:24.077Z,43.97
2023-02-14T16:47:50.773Z,42.90
2023-02-14T16:50:19.328Z,38.55
2023-02-14T16:52:50.886Z,40.95
2023-02-14T16:55:20.119Z,39.85
2023-02-14T16:57:53.164Z,42.92
2023-02-14T17:00:20.102Z,44.50
2023-02-14T17:02:46.784Z,37.53
2023-02-14T17:05:13.603Z,40.63
2023-02-14T17:07:43.774Z,40.42
2023-02-14T17:10:17.597Z,37.83
2023-02-14T17:12:47.547Z,38.00
2023-02-14T17:15:18.122Z,37.00
2023-02-14T17:17:47.237Z,40.83
2023-02-14T17:20:14.808Z,36.42
2023-02-14T17:22:44.621Z,33.28
2023-02-14T17:25:11.466Z,37.70
2023-02-14T17:27:38.545Z,46.97
2023-02-14T17:30:05.747Z,44.50
2023-02-14T17:32:32.289Z,43.95
2023-02-14T17:34:58.904Z,44.50
2023-02-14T17:37:25.618Z,40.20
2023-02-14T17:39:53.271Z,39.05
2023-02-14T17:42:19.912Z,46.00
2023-02-14T17:44:46.466Z,37.40
2023-02-14T17:47:14.827Z,40.45
2023-02-14T17:49:47.617Z,38.25
2023-02-14T17:52:17.550Z,42.25
2023-02-14T17:54:47.329Z,37.65
2023-02-14T17:57:14.926Z,34.22
2023-02-14T17:59:47.098Z,44.80
2023-02-14T18:02:28.825Z,39.17
2023-02-14T18:04:55.598Z,36.90
2023-02-14T18:07:26.198Z,37.50
2023-02-14T18:09:52.771Z,40.67
2023-02-14T18:12:19.334Z,36.28
2023-02-14T18:14:45.992Z,37.92
2023-02-14T18:17:13.720Z,39.10
2023-02-14T18:19:40.560Z,33.65
2023-02-14T18:22:07.213Z,40.20
2023-02-14T18:24:33.794Z,41.70
2023-02-14T18:27:00.348Z,39.72
2023-02-14T18:29:26.960Z,40.28
2023-02-14T18:31:53.751Z,38.33
2023-02-14T18:34:20.429Z,40.05
2023-02-14T18:36:49.383Z,41.33
2023-02-14T18:39:21.645Z,44.22
2023-02-14T18:42:01.489Z,38.90
2023-02-14T18:44:34.387Z,42.10
2023-02-14T18:47:04.928Z,39.03
2023-02-14T18:49:41.916Z,35.35
2023-02-14T18:52:20.467Z,37.25
2023-02-14T18:57:45.562Z,38.55
2023-02-14T19:00:12.933Z,42.22
2023-02-14T19:02:39.540Z,36.20
2023-02-14T19:05:07.945Z,41.42
2023-02-14T19:07:35.708Z,38.63
2023-02-14T19:10:04.038Z,32.83
2023-02-14T19:12:33.253Z,36.08
2023-02-14T19:15:01.471Z,34.63
2023-02-14T19:17:28.115Z,37.47
2023-02-14T19:19:55.378Z,37.75
2023-02-14T19:22:22.651Z,37.70
2023-02-14T19:29:22.641Z,37.05
2023-02-14T19:31:54.807Z,36.75
2023-02-14T19:34:29.305Z,39.40
2023-02-14T19:38:41.890Z,36.80
2023-02-14T19:39:53.877Z,40.63
2023-02-14T19:42:34.789Z,39.83
2023-02-14T19:48:25.212Z,33.80
2023-02-14T19:50:58.149Z,38.75
2023-02-14T19:53:27.703Z,37.67
2023-02-14T19:55:54.350Z,39.65
2023-02-14T19:58:28.379Z,37.45
2023-02-14T20:00:59.976Z,35.92
2023-02-14T20:03:27.092Z,35.83
2023-02-14T20:05:53.687Z,37.42
2023-02-14T20:08:20.328Z,38.83
2023-02-14T20:10:51.247Z,36.55
2023-02-14T20:13:17.800Z,32.03
2023-02-14T20:15:45.636Z,32.22
2023-02-14T20:18:12.377Z,36.67
2023-02-14T20:21:03.154Z,35.47
2023-02-14T20:23:32.278Z,33.75
2023-02-14T20:25:58.815Z,37.47
2023-02-14T20:28:25.380Z,38.10
2023-02-14T20:30:54.299Z,33.60
2023-02-14T20:33:20.997Z,34.50
2023-02-14T20:35:47.549Z,36.25
2023-02-14T20:38:14.135Z,37.72
2023-02-14T20:40:42.752Z,36.22
2023-02-14T20:43:12.444Z,37.85
2023-02-14T20:45:41.698Z,33.35
2023-02-14T20:48:08.545Z,32.83
2023-02-14T20:50:35.527Z,33.13
2023-02-14T20:53:02.105Z,35.33
2023-02-14T20:55:31.069Z,37.20
2023-02-14T20:58:02.379Z,39.60
2023-02-14T21:00:30.068Z,34.20
2023-02-14T21:02:57.357Z,38.80
2023-02-14T21:05:26.176Z,32.25
2023-02-14T21:07:52.716Z,34.22
2023-02-14T21:10:19.294Z,32.95
2023-02-14T21:12:46.008Z,32.25
2023-02-14T21:15:12.692Z,36.30
2023-02-14T21:17:39.521Z,35.45
2023-02-14T21:20:09.799Z,29.92
2023-02-14T21:22:37.631Z,35.47
2023-02-14T21:25:05.794Z,35.15
2023-02-14T21:27:32.392Z,32.45
2023-02-14T21:29:59.007Z,36.40
2023-02-14T21:32:28.400Z,33.88
2023-02-14T21:34:58.296Z,30.65
2023-02-14T21:37:25.051Z,34.95
2023-02-14T21:39:51.717Z,35.30
2023-02-14T21:42:18.748Z,32.15
2023-02-14T21:45:05.601Z,35.58
2023-02-14T21:47:37.030Z,31.08
2023-02-14T21:50:24.082Z,30.23
2023-02-14T21:52:53.146Z,33.63
2023-02-14T21:55:20.931Z,32.53
2023-02-14T21:57:47.470Z,29.10
2023-02-14T22:00:14.297Z,30.48
2023-02-14T22:02:41.146Z,29.30
2023-02-14T22:05:08.164Z,29.73
2023-02-14T22:07:35.137Z,30.25
2023-02-14T22:10:02.618Z,27.98
2023-02-14T22:12:29.800Z,31.40
2023-02-14T22:15:00.211Z,26.52
2023-02-14T22:17:27.530Z,28.27
2023-02-14T22:19:54.903Z,31.48
2023-02-14T22:22:21.521Z,27.20
2023-02-14T22:24:48.510Z,31.40
2023-02-14T22:27:16.228Z,29.85
2023-02-14T22:29:42.932Z,28.10
2023-02-14T22:32:09.776Z,28.20
2023-02-14T22:34:36.527Z,31.75
2023-02-14T22:37:03.295Z,28.27
2023-02-14T22:39:29.977Z,30.13
2023-02-14T22:41:56.600Z,31.23
2023-02-14T22:44:32.018Z,36.08
2023-02-14T22:47:04.503Z,25.20
2023-02-14T22:49:31.397Z,29.15
2023-02-14T22:51:58.037Z,30.23
2023-02-14T22:54:24.622Z,28.48
2023-02-14T22:57:02.406Z,28.27
2023-02-14T22:59:40.278Z,30.38
2023-02-14T23:02:07.297Z,27.00
2023-02-14T23:04:35.884Z,28.45
2023-02-14T23:07:05.577Z,29.10
2023-02-14T23:09:36.733Z,29.90
2023-02-14T23:12:03.626Z,30.52
2023-02-14T23:14:48.857Z,28.25
2023-02-14T23:17:16.149Z,28.60
2023-02-14T23:20:01.772Z,28.38
2023-02-14T23:22:31.350Z,35.42
2023-02-14T23:25:00.483Z,32.58
2023-02-14T23:27:38.987Z,34.38
2023-02-14T23:30:07.634Z,35.95
2023-02-14T23:32:34.469Z,34.83
2023-02-14T23:35:01.003Z,31.98
2023-02-14T23:37:27.780Z,29.23
2023-02-14T23:39:54.477Z,31.83
2023-02-14T23:42:21.042Z,30.73
2023-02-14T23:44:47.778Z,30.08
2023-02-14T23:47:14.947Z,34.30
2023-02-14T23:49:41.993Z,26.95
2023-02-14T23:52:11.220Z,27.15
2023-02-14T23:54:38.296Z,31.80
2023-02-14T23:57:06.170Z,27.63
2023-02-14T23:59:32.758Z,27.85
